Time;durP1;ratioP1;P1;durP2;ratioP2;P2;SDS_P1;SDS_P2;PMS_P1;PMS_P2;Temp;Humidity;BMP_temperature;BMP_pressure;BME280_temperature;BME280_humidity;BME280_pressure;Samples;Min_cycle;Max_cycle;Signal;HPM_P1;HPM_P2
2022/05/16 00:02:09;;;;;;;4.30;1.90;;;13.30;99.90;;;;;;5025288;28;24392;-71
2022/05/16 00:04:57;;;;;;;2.90;1.70;;;13.30;99.90;;;;;;5027813;28;20508;-70
2022/05/16 00:07:45;;;;;;;2.23;1.90;;;13.20;99.90;;;;;;5032829;28;20459;-70
2022/05/16 00:10:33;;;;;;;2.90;2.23;;;13.20;99.90;;;;;;5030973;28;20985;-70
2022/05/16 00:13:22;;;;;;;3.03;2.07;;;13.20;99.90;;;;;;5030682;28;20487;-70
2022/05/16 00:16:11;;;;;;;3.57;2.20;;;13.20;99.90;;;;;;5023885;28;20501;-70
2022/05/16 00:18:59;;;;;;;3.80;2.47;;;13.10;99.90;;;;;;5028786;28;20459;-70
2022/05/16 00:21:48;;;;;;;3.00;2.33;;;13.10;99.90;;;;;;5029875;28;20455;-70
2022/05/16 00:24:39;;;;;;;4.70;2.30;;;13.00;99.90;;;;;;5026662;28;20459;-70
2022/05/16 00:27:27;;;;;;;2.33;2.10;;;13.00;99.90;;;;;;5037802;28;20550;-69
2022/05/16 00:30:18;;;;;;;3.77;2.00;;;13.10;99.90;;;;;;5028180;28;20487;-70
2022/05/16 00:33:08;;;;;;;3.80;2.20;;;13.10;99.90;;;;;;5024607;28;20571;-69
2022/05/16 00:35:56;;;;;;;3.10;2.37;;;13.00;99.90;;;;;;5037019;28;20511;-70
2022/05/16 00:38:44;;;;;;;3.13;2.60;;;13.00;99.90;;;;;;5026694;28;21330;-70
2022/05/16 00:41:32;;;;;;;3.73;2.40;;;13.00;99.90;;;;;;5006201;28;20952;-70
2022/05/16 00:44:22;;;;;;;3.80;2.20;;;12.90;99.90;;;;;;5000343;28;21311;-69
2022/05/16 00:47:10;;;;;;;4.20;2.50;;;12.90;99.90;;;;;;5004745;28;21422;-71
2022/05/16 00:50:02;;;;;;;3.30;2.50;;;12.90;99.90;;;;;;5006485;28;20847;-69
2022/05/16 00:52:52;;;;;;;3.60;2.40;;;12.80;99.90;;;;;;5008823;28;20563;-70
2022/05/16 00:55:42;;;;;;;5.90;2.80;;;12.80;99.90;;;;;;5006816;28;20533;-70
2022/05/16 00:58:31;;;;;;;2.20;1.80;;;12.80;99.90;;;;;;5011057;28;20479;-70
2022/05/16 01:07:36;;;;;;;3.37;2.87;;;12.70;99.90;;;;;;5013917;28;20941;-70
2022/05/16 01:10:25;;;;;;;2.97;2.37;;;12.70;99.90;;;;;;5012186;28;20530;-70
2022/05/16 01:13:14;;;;;;;6.17;2.60;;;12.70;99.90;;;;;;5007730;28;20526;-70
2022/05/16 01:16:04;;;;;;;3.23;2.60;;;12.60;99.90;;;;;;5012715;28;20534;-69
2022/05/16 01:18:52;;;;;;;4.33;2.57;;;12.60;99.90;;;;;;5010238;28;20502;-71
2022/05/16 01:21:42;;;;;;;3.70;2.30;;;12.60;99.90;;;;;;5015248;28;21767;-70
2022/05/16 01:24:31;;;;;;;3.23;2.20;;;12.60;99.90;;;;;;5006446;28;20507;-69
2022/05/16 01:27:19;;;;;;;2.97;2.47;;;12.50;99.90;;;;;;5009743;28;20453;-69
2022/05/16 01:30:08;;;;;;;4.53;2.80;;;12.50;99.90;;;;;;5010394;28;20484;-72
2022/05/16 01:32:57;;;;;;;3.70;2.83;;;12.50;99.90;;;;;;5008955;28;20837;-71
2022/05/16 01:35:46;;;;;;;3.20;2.90;;;12.50;99.90;;;;;;5028224;28;20554;-69
2022/05/16 01:38:34;;;;;;;3.83;2.50;;;12.50;99.90;;;;;;5027963;28;21106;-69
2022/05/16 01:41:26;;;;;;;2.70;2.50;;;12.50;99.90;;;;;;5029760;28;20645;-71
2022/05/16 01:44:14;;;;;;;4.30;2.77;;;12.40;99.90;;;;;;4999154;28;20566;-69
2022/05/16 01:47:02;;;;;;;4.70;2.50;;;12.40;99.90;;;;;;5010774;28;20618;-69
2022/05/16 01:49:51;;;;;;;3.60;2.60;;;12.40;99.90;;;;;;5004689;28;20559;-71
2022/05/16 01:52:39;;;;;;;8.53;3.10;;;12.40;99.90;;;;;;5004847;28;20606;-71
2022/05/16 01:55:27;;;;;;;2.90;2.70;;;12.40;99.90;;;;;;5007748;28;20908;-70
2022/05/16 01:58:16;;;;;;;4.70;2.40;;;12.30;99.90;;;;;;5008582;28;20454;-70
2022/05/16 02:01:05;;;;;;;4.10;2.87;;;12.30;99.90;;;;;;5014894;28;23829;-70
2022/05/16 02:03:54;;;;;;;4.50;3.10;;;12.20;99.90;;;;;;5003627;28;20876;-70
2022/05/16 02:06:42;;;;;;;2.67;2.47;;;12.30;99.90;;;;;;5004130;28;20538;-70
2022/05/16 02:09:30;;;;;;;3.43;2.53;;;12.20;99.90;;;;;;5012111;28;20534;-69
2022/05/16 02:12:18;;;;;;;3.47;2.70;;;12.20;99.90;;;;;;5007461;28;20492;-69
2022/05/16 02:15:11;;;;;;;2.60;2.40;;;12.20;99.90;;;;;;5006161;28;20515;-70
2022/05/16 02:18:00;;;;;;;3.10;2.80;;;12.20;99.90;;;;;;5007013;28;20965;-71
2022/05/16 02:20:48;;;;;;;3.13;2.63;;;12.20;99.90;;;;;;5010988;28;20570;-70
2022/05/16 02:26:46;;;;;;;3.17;2.43;;;12.20;99.90;;;;;;5031128;28;20597;-70
2022/05/16 02:29:35;;;;;;;3.50;2.80;;;12.20;99.90;;;;;;5026009;28;20488;-69
2022/05/16 02:32:25;;;;;;;2.93;2.67;;;12.10;99.90;;;;;;5027404;28;20491;-70
2022/05/16 02:35:13;;;;;;;3.70;2.83;;;12.10;99.90;;;;;;5024312;28;21375;-69
2022/05/16 02:38:03;;;;;;;3.93;2.60;;;12.10;99.90;;;;;;5030772;28;20594;-70
2022/05/16 02:40:51;;;;;;;3.83;2.97;;;12.10;99.90;;;;;;5026005;28;20547;-69
2022/05/16 02:43:39;;;;;;;2.93;2.63;;;12.10;99.90;;;;;;5026236;28;20562;-70
2022/05/16 02:46:27;;;;;;;6.20;3.00;;;12.10;99.90;;;;;;5027022;28;20526;-71
2022/05/16 02:49:17;;;;;;;4.67;2.80;;;12.10;99.90;;;;;;5029267;28;20462;-69
2022/05/16 02:52:06;;;;;;;3.50;3.20;;;12.00;99.90;;;;;;5028012;28;20470;-69
2022/05/16 02:54:54;;;;;;;4.83;3.47;;;12.10;99.90;;;;;;5030625;28;20545;-70
2022/05/16 02:57:42;;;;;;;4.50;3.43;;;12.10;99.90;;;;;;5028996;28;20572;-71
2022/05/16 03:00:30;;;;;;;6.83;3.60;;;12.00;99.90;;;;;;5033777;28;20542;-70
2022/05/16 03:03:18;;;;;;;3.97;3.10;;;12.00;99.90;;;;;;5029351;28;21104;-70
2022/05/16 03:06:09;;;;;;;4.53;3.13;;;12.00;99.90;;;;;;5031790;28;21052;-69
2022/05/16 03:08:57;;;;;;;3.90;2.87;;;12.00;99.90;;;;;;5029340;28;20486;-70
2022/05/16 03:11:45;;;;;;;8.20;3.43;;;12.00;99.90;;;;;;5031800;28;21055;-70
2022/05/16 03:14:35;;;;;;;4.63;2.77;;;11.90;99.90;;;;;;5033947;28;20467;-70
2022/05/16 03:17:23;;;;;;;5.47;3.40;;;11.90;99.90;;;;;;5035641;28;20470;-70
2022/05/16 03:20:14;;;;;;;5.37;3.37;;;11.90;99.90;;;;;;5036345;28;20462;-69
2022/05/16 03:23:04;;;;;;;5.67;3.57;;;11.90;99.90;;;;;;5028057;28;20471;-69
2022/05/16 03:25:53;;;;;;;4.70;3.13;;;11.90;99.90;;;;;;5031418;28;21025;-71
2022/05/16 03:28:41;;;;;;;4.20;3.10;;;11.80;99.90;;;;;;5034945;28;20604;-70
2022/05/16 03:31:29;;;;;;;5.33;3.30;;;11.80;99.90;;;;;;5034916;28;21001;-71
2022/05/16 03:34:17;;;;;;;4.83;3.63;;;11.90;99.90;;;;;;5033853;28;20568;-70
2022/05/16 03:37:05;;;;;;;4.77;3.30;;;11.90;99.90;;;;;;5034746;28;20498;-70
2022/05/16 03:43:01;;;;;;;3.83;3.40;;;11.90;99.90;;;;;;5035896;28;20454;-70
2022/05/16 03:45:49;;;;;;;4.73;3.30;;;11.80;99.90;;;;;;5028667;28;20488;-70
2022/05/16 03:48:37;;;;;;;5.27;3.57;;;11.80;99.90;;;;;;5028821;28;20554;-70
2022/05/16 03:51:25;;;;;;;4.60;3.40;;;11.80;99.90;;;;;;5033520;28;20598;-70
2022/05/16 03:54:15;;;;;;;3.60;3.10;;;11.70;99.90;;;;;;5033331;28;20472;-70
2022/05/16 03:57:05;;;;;;;3.37;2.90;;;11.80;99.90;;;;;;5028694;28;20561;-71
2022/05/16 03:59:53;;;;;;;4.20;3.70;;;11.80;99.90;;;;;;5031373;28;20534;-70
2022/05/16 04:02:42;;;;;;;3.73;3.43;;;11.80;99.90;;;;;;5021298;28;20601;-70
2022/05/16 04:05:31;;;;;;;5.60;3.33;;;11.70;99.90;;;;;;5015691;28;20508;-70
2022/05/16 04:08:19;;;;;;;3.70;3.20;;;11.80;99.90;;;;;;5017835;28;20465;-70
2022/05/16 04:11:07;;;;;;;4.03;3.07;;;11.80;99.90;;;;;;5016048;28;20464;-71
2022/05/16 04:13:58;;;;;;;3.60;3.20;;;11.80;99.90;;;;;;5014009;28;20475;-69
2022/05/16 04:16:46;;;;;;;4.50;3.30;;;11.80;99.90;;;;;;5009961;28;20476;-71
2022/05/16 04:19:34;;;;;;;6.63;3.10;;;11.80;99.90;;;;;;5006924;28;20456;-70
2022/05/16 04:22:22;;;;;;;4.53;2.80;;;11.80;99.90;;;;;;5012401;28;20476;-70
2022/05/16 04:25:12;;;;;;;3.93;3.50;;;11.80;99.90;;;;;;5011311;28;20456;-70
2022/05/16 04:28:00;;;;;;;6.03;3.43;;;11.80;99.90;;;;;;5014600;28;21257;-70
2022/05/16 04:30:50;;;;;;;5.97;3.60;;;11.80;99.90;;;;;;5010334;28;20488;-70
2022/05/16 04:33:38;;;;;;;5.77;3.10;;;11.90;99.90;;;;;;5007175;28;20488;-69
2022/05/16 04:36:26;;;;;;;3.53;3.10;;;12.00;99.90;;;;;;5009526;28;20562;-70
2022/05/16 04:39:14;;;;;;;5.07;4.03;;;12.00;99.90;;;;;;5009234;28;20506;-70
2022/05/16 04:45:11;;;;;;;7.70;4.53;;;12.00;99.90;;;;;;5007725;28;20480;-70
2022/05/16 04:48:04;;;;;;;5.20;3.20;;;12.00;99.90;;;;;;5003637;28;20486;-70
2022/05/16 04:50:52;;;;;;;3.90;3.13;;;12.10;99.90;;;;;;5008603;28;20555;-70
2022/05/16 04:53:40;;;;;;;5.17;3.00;;;12.10;99.90;;;;;;5008277;28;20611;-70
2022/05/16 04:56:28;;;;;;;4.80;2.87;;;12.10;99.90;;;;;;5012642;28;20563;-70
2022/05/16 04:59:16;;;;;;;3.57;3.27;;;12.20;99.90;;;;;;5010501;28;21703;-69
2022/05/16 05:02:04;;;;;;;3.30;2.97;;;12.20;99.90;;;;;;4998549;28;20567;-69
2022/05/16 05:04:54;;;;;;;4.23;3.27;;;12.30;99.90;;;;;;5004131;28;20521;-69
2022/05/16 05:07:43;;;;;;;3.63;2.87;;;12.30;99.90;;;;;;5007960;28;20488;-69
2022/05/16 05:16:43;;;;;;;5.10;3.57;;;12.40;99.90;;;;;;5010507;28;20563;-70
2022/05/16 05:19:31;;;;;;;6.53;3.40;;;12.50;99.90;;;;;;5014100;28;20526;-68
2022/05/16 05:22:21;;;;;;;3.43;2.83;;;12.50;99.90;;;;;;5009047;28;20622;-69
2022/05/16 05:25:11;;;;;;;5.50;3.00;;;12.60;99.90;;;;;;5007661;28;20459;-69
2022/05/16 05:28:02;;;;;;;6.00;3.30;;;12.60;99.90;;;;;;5004963;28;20531;-71
2022/05/16 05:30:55;;;;;;;4.00;2.90;;;12.70;99.90;;;;;;5008709;28;20991;-70
2022/05/16 05:33:43;;;;;;;8.43;3.60;;;12.70;99.90;;;;;;4992319;28;20480;-71
2022/05/16 05:36:33;;;;;;;4.80;3.20;;;12.80;99.90;;;;;;4991036;28;20504;-71
2022/05/16 05:39:23;;;;;;;5.13;3.00;;;12.90;99.90;;;;;;4998658;28;20518;-69
2022/05/16 05:42:11;;;;;;;4.47;3.43;;;12.90;99.90;;;;;;4986807;28;20483;-70
2022/05/16 05:45:00;;;;;;;5.40;2.83;;;13.00;99.90;;;;;;5000520;28;20978;-70
2022/05/16 05:47:49;;;;;;;4.73;3.13;;;13.00;99.90;;;;;;5006115;28;20489;-71
2022/05/16 05:50:37;;;;;;;6.00;3.47;;;13.10;99.90;;;;;;5009795;28;20481;-70
2022/05/16 05:53:25;;;;;;;5.07;3.03;;;13.20;99.90;;;;;;5002157;28;20475;-70
2022/05/16 05:56:15;;;;;;;4.57;2.53;;;13.20;99.90;;;;;;5009025;28;20476;-69
2022/05/16 05:59:04;;;;;;;4.80;3.20;;;13.30;99.90;;;;;;5009209;28;20455;-70
2022/05/16 06:01:52;;;;;;;3.93;3.03;;;13.30;99.90;;;;;;4997544;28;20455;-70
2022/05/16 06:04:40;;;;;;;6.17;3.20;;;13.40;99.90;;;;;;4998900;28;20464;-70
2022/05/16 06:07:29;;;;;;;3.70;3.27;;;13.40;99.90;;;;;;5008029;28;20495;-69
2022/05/16 06:10:17;;;;;;;4.27;3.17;;;13.50;99.90;;;;;;5004673;28;20484;-69
2022/05/16 06:13:07;;;;;;;3.37;3.00;;;13.50;99.90;;;;;;5002581;28;20519;-70
2022/05/16 06:15:55;;;;;;;4.20;3.20;;;13.60;99.90;;;;;;4999427;28;20959;-70
2022/05/16 06:18:43;;;;;;;6.00;3.00;;;13.70;99.90;;;;;;4991980;28;20461;-71
2022/05/16 06:21:31;;;;;;;6.30;3.40;;;13.80;99.90;;;;;;5002459;28;20598;-70
2022/05/16 06:27:28;;;;;;;4.37;2.20;;;13.90;99.90;;;;;;5016008;28;20447;-70
2022/05/16 06:30:19;;;;;;;4.93;2.90;;;14.00;99.90;;;;;;5004929;28;20498;-71
2022/05/16 06:33:08;;;;;;;3.53;2.80;;;14.00;99.90;;;;;;5017806;28;20517;-72
2022/05/16 06:35:57;;;;;;;3.57;3.00;;;14.10;99.90;;;;;;5004058;28;20511;-71
2022/05/16 06:38:46;;;;;;;6.53;3.80;;;14.10;99.90;;;;;;5029172;28;20467;-70
2022/05/16 06:41:34;;;;;;;7.10;3.30;;;14.20;99.90;;;;;;5030741;28;20483;-70
2022/05/16 06:44:22;;;;;;;4.83;3.10;;;14.30;99.90;;;;;;5006236;28;20460;-70
2022/05/16 06:47:12;;;;;;;6.73;2.90;;;14.40;99.90;;;;;;5003160;28;21083;-70
2022/05/16 06:50:00;;;;;;;5.10;3.13;;;14.40;99.90;;;;;;5004798;28;20565;-70
2022/05/16 06:52:49;;;;;;;5.70;3.20;;;14.50;99.90;;;;;;5035546;28;20475;-71
2022/05/16 06:55:37;;;;;;;6.70;2.90;;;14.60;99.90;;;;;;5025721;28;20487;-70
2022/05/16 06:58:26;;;;;;;4.40;2.60;;;14.60;99.90;;;;;;5032350;28;20518;-71
2022/05/16 07:01:14;;;;;;;6.43;2.90;;;14.70;99.90;;;;;;5029349;28;20938;-70
2022/05/16 07:04:05;;;;;;;4.70;3.10;;;14.80;99.90;;;;;;5022932;28;20534;-70
2022/05/16 07:06:53;;;;;;;6.07;3.23;;;14.90;99.90;;;;;;5031179;28;20483;-70
2022/05/16 07:09:41;;;;;;;5.90;3.50;;;15.00;99.90;;;;;;5029299;28;20489;-70
2022/05/16 07:12:29;;;;;;;5.40;3.00;;;15.10;99.90;;;;;;5025775;28;21158;-70
2022/05/16 07:15:19;;;;;;;3.63;3.00;;;15.20;99.90;;;;;;5025352;28;20613;-70
2022/05/16 07:18:08;;;;;;;4.53;3.13;;;15.30;99.90;;;;;;5034002;28;20469;-71
2022/05/16 07:20:59;;;;;;;4.03;3.23;;;15.30;99.90;;;;;;5025829;28;20856;-70
2022/05/16 07:23:48;;;;;;;3.63;3.23;;;15.50;99.90;;;;;;5029342;28;20562;-70
2022/05/16 07:29:42;;;;;;;4.57;3.10;;;15.70;99.90;;;;;;5023652;28;20498;-70
2022/05/16 07:32:34;;;;;;;4.37;3.20;;;15.80;99.90;;;;;;5029270;28;20479;-70
2022/05/16 07:35:25;;;;;;;4.03;3.00;;;15.80;99.90;;;;;;5021850;28;20479;-70
2022/05/16 07:38:15;;;;;;;4.40;3.10;;;15.90;99.90;;;;;;5032459;28;20556;-70
2022/05/16 07:41:04;;;;;;;3.57;2.90;;;16.00;99.90;;;;;;5029296;28;20526;-70
2022/05/16 07:43:52;;;;;;;3.60;2.50;;;16.10;99.90;;;;;;5015977;28;20482;-69
2022/05/16 07:46:40;;;;;;;3.80;3.00;;;16.10;99.90;;;;;;5020078;28;23255;-70
2022/05/16 07:49:28;;;;;;;5.07;2.97;;;16.20;99.90;;;;;;5024790;28;20534;-70
2022/05/16 07:52:16;;;;;;;3.27;2.97;;;16.30;99.90;;;;;;5022535;28;20571;-70
2022/05/16 07:55:07;;;;;;;3.83;3.03;;;16.30;99.90;;;;;;5022716;28;20533;-69
2022/05/16 07:57:55;;;;;;;4.03;3.10;;;16.40;99.90;;;;;;5031160;28;20483;-70
2022/05/16 08:00:44;;;;;;;3.97;2.83;;;16.50;99.90;;;;;;5024197;28;20460;-70
2022/05/16 08:03:33;;;;;;;4.90;3.00;;;16.60;99.90;;;;;;5030644;28;20498;-70
2022/05/16 08:06:21;;;;;;;6.33;3.00;;;16.70;99.90;;;;;;5025735;28;20467;-70
2022/05/16 08:12:23;;;;;;;4.47;2.80;;;17.00;99.90;;;;;;5024975;28;20522;-71
2022/05/16 08:15:11;;;;;;;3.40;2.70;;;17.10;99.90;;;;;;5022916;28;20598;-71
2022/05/16 08:18:02;;;;;;;5.73;3.50;;;17.20;99.90;;;;;;5029464;28;20504;-71
2022/05/16 08:20:51;;;;;;;5.33;2.90;;;17.20;99.90;;;;;;5030528;28;20479;-70
2022/05/16 08:23:41;;;;;;;3.90;2.97;;;17.30;99.90;;;;;;5028924;28;21026;-71
2022/05/16 08:26:29;;;;;;;2.97;2.70;;;17.40;99.90;;;;;;5028270;28;20479;-70
2022/05/16 08:29:18;;;;;;;3.93;3.07;;;17.50;99.90;;;;;;5020725;28;20488;-70
2022/05/16 08:32:07;;;;;;;4.20;2.70;;;17.50;99.90;;;;;;5021795;28;20487;-69
2022/05/16 08:35:00;;;;;;;5.83;2.60;;;17.60;99.90;;;;;;5028039;28;20855;-71
2022/05/16 08:40:58;;;;;;;7.83;3.20;;;17.90;99.90;;;;;;5027899;28;20939;-70
2022/05/16 08:43:51;;;;;;;4.93;3.10;;;18.10;99.90;;;;;;5027023;28;20825;-72
2022/05/16 08:46:47;;;;;;;4.97;2.87;;;18.10;99.90;;;;;;5022518;28;20582;-69
2022/05/16 08:49:41;;;;;;;4.50;2.90;;;18.20;99.90;;;;;;5031057;28;20458;-69
2022/05/16 08:52:40;;;;;;;3.93;2.60;;;18.30;99.90;;;;;;5028912;28;20478;-70
2022/05/16 08:55:33;;;;;;;4.10;2.30;;;18.50;99.90;;;;;;5026531;28;20559;-70
2022/05/16 08:58:33;;;;;;;2.93;2.33;;;18.50;99.90;;;;;;5020643;28;20463;-70
2022/05/16 09:01:26;;;;;;;4.40;2.70;;;18.60;99.90;;;;;;5026558;28;20839;-69
2022/05/16 09:04:21;;;;;;;3.33;2.90;;;18.70;99.90;;;;;;5029270;28;20495;-70
2022/05/16 09:07:16;;;;;;;5.97;2.97;;;18.70;99.90;;;;;;5030891;28;20543;-70
2022/05/16 09:10:08;;;;;;;5.83;3.10;;;18.70;99.90;;;;;;5025607;28;20452;-71
2022/05/16 09:13:08;;;;;;;3.53;2.47;;;18.80;99.90;;;;;;5001573;28;20509;-70
2022/05/16 09:16:02;;;;;;;4.80;2.47;;;18.90;99.90;;;;;;4999329;28;20485;-71
2022/05/16 09:18:58;;;;;;;4.50;2.70;;;19.00;99.90;;;;;;4992264;28;20519;-69
2022/05/16 09:22:01;;;;;;;3.40;2.70;;;19.10;99.90;;;;;;5000957;28;20459;-69
2022/05/16 09:24:52;;;;;;;4.33;3.10;;;19.20;99.90;;;;;;5025458;28;20536;-69
2022/05/16 09:30:49;;;;;;;4.50;3.00;;;19.30;99.90;;;;;;5022453;28;20455;-69
2022/05/16 09:33:43;;;;;;;3.13;2.50;;;19.30;99.90;;;;;;5010195;28;20530;-71
2022/05/16 09:36:35;;;;;;;2.70;2.20;;;19.40;99.90;;;;;;5002356;28;20572;-70
2022/05/16 09:39:31;;;;;;;2.70;2.50;;;19.50;99.90;;;;;;5008258;28;20452;-71
2022/05/16 09:42:23;;;;;;;4.40;2.67;;;19.60;99.90;;;;;;5004214;28;20488;-71
2022/05/16 09:45:22;;;;;;;4.40;2.83;;;19.70;99.90;;;;;;5002586;28;20487;-70
2022/05/16 09:48:19;;;;;;;2.80;2.60;;;19.80;99.90;;;;;;5008310;28;20450;-71
2022/05/16 09:51:09;;;;;;;3.47;2.73;;;19.90;99.90;;;;;;5007289;28;20464;-72
2022/05/16 09:54:12;;;;;;;2.53;2.33;;;20.00;99.90;;;;;;5026729;28;20557;-71
2022/05/16 09:57:20;;;;;;;5.80;2.73;;;20.10;99.90;;;;;;5024446;28;21452;-71
2022/05/16 10:00:18;;;;;;;3.13;2.47;;;20.30;99.90;;;;;;5024592;28;20455;-71
2022/05/16 10:03:24;;;;;;;5.53;2.93;;;20.30;99.90;;;;;;5026804;28;20479;-73
2022/05/16 10:06:30;;;;;;;3.53;2.37;;;20.50;99.90;;;;;;5028254;28;20943;-70
2022/05/16 10:09:29;;;;;;;3.57;2.40;;;20.60;99.90;;;;;;5025267;28;20486;-73
2022/05/16 10:12:22;;;;;;;2.97;2.67;;;20.70;99.90;;;;;;5029444;28;21125;-71
2022/05/16 10:15:12;;;;;;;2.87;2.57;;;20.80;99.90;;;;;;5027858;28;20471;-73
2022/05/16 10:18:03;;;;;;;3.20;2.90;;;20.90;99.90;;;;;;5027697;28;20534;-70
2022/05/16 10:20:56;;;;;;;3.97;3.03;;;21.00;99.90;;;;;;5022821;28;20522;-73
2022/05/16 10:23:46;;;;;;;3.07;2.77;;;21.10;99.90;;;;;;5026763;28;20590;-71
2022/05/16 10:26:39;;;;;;;3.90;2.80;;;21.20;99.90;;;;;;5027388;28;20601;-71
2022/05/16 10:29:32;;;;;;;2.63;2.23;;;21.30;99.90;;;;;;5034976;28;20523;-70
2022/05/16 10:35:41;;;;;;;3.03;2.60;;;21.40;99.90;;;;;;5030947;28;20577;-73
2022/05/16 10:38:37;;;;;;;2.77;2.57;;;21.50;99.90;;;;;;5030547;28;20462;-73
2022/05/16 10:41:35;;;;;;;2.90;2.40;;;21.50;99.90;;;;;;5025072;28;20492;-71
2022/05/16 10:44:30;;;;;;;2.67;2.33;;;21.70;99.90;;;;;;5011276;28;20476;-71
2022/05/16 10:47:25;;;;;;;2.80;2.60;;;21.70;99.90;;;;;;5011553;28;20974;-71
2022/05/16 10:50:17;;;;;;;3.00;2.60;;;21.80;99.90;;;;;;5012193;28;20587;-71
2022/05/16 10:53:11;;;;;;;3.87;2.53;;;21.90;99.90;;;;;;5011343;28;20472;-70
2022/05/16 10:56:06;;;;;;;2.80;2.30;;;21.90;99.90;;;;;;5012413;28;20542;-71
2022/05/16 10:59:03;;;;;;;2.93;2.60;;;22.10;99.90;;;;;;5006635;28;21272;-70
2022/05/16 11:01:58;;;;;;;3.90;2.30;;;22.10;99.90;;;;;;5006398;28;20951;-71
2022/05/16 11:05:13;;;;;;;3.33;2.30;;;22.20;99.90;;;;;;5032068;28;20578;-72
2022/05/16 11:08:11;;;;;;;2.73;2.23;;;22.30;99.90;;;;;;5031771;28;20532;-73
2022/05/16 11:11:04;;;;;;;3.10;2.30;;;22.40;99.90;;;;;;5028802;28;20451;-71
2022/05/16 11:13:59;;;;;;;2.30;2.10;;;22.60;99.90;;;;;;5015784;28;22209;-72
2022/05/16 11:16:51;;;;;;;4.13;2.00;;;22.70;99.90;;;;;;5021097;28;20586;-71
2022/05/16 11:19:49;;;;;;;3.27;2.57;;;22.80;99.90;;;;;;5029708;28;20451;-71
2022/05/16 11:22:42;;;;;;;4.13;2.70;;;22.90;99.90;;;;;;5023768;28;20471;-71
2022/05/16 11:25:38;;;;;;;3.47;2.10;;;23.00;99.90;;;;;;5023541;28;20467;-71
2022/05/16 11:28:35;;;;;;;2.60;2.17;;;23.00;99.90;;;;;;5021203;28;20558;-70
2022/05/16 11:31:24;;;;;;;4.20;2.07;;;23.10;99.90;;;;;;5021862;28;20559;-70
2022/05/16 11:34:21;;;;;;;5.20;2.60;;;23.20;99.90;;;;;;5025779;28;20475;-70
2022/05/16 11:37:30;;;;;;;6.63;2.57;;;23.30;99.90;;;;;;5023354;28;20515;-73
2022/05/16 11:40:25;;;;;;;2.63;2.30;;;23.40;99.90;;;;;;5030475;28;20582;-72
2022/05/16 11:43:18;;;;;;;3.50;2.70;;;23.60;99.90;;;;;;5024923;28;20481;-72
2022/05/16 11:46:18;;;;;;;2.73;2.50;;;23.60;99.90;;;;;;5030870;28;20526;-72
2022/05/16 12:00:32;;;;;;;3.90;2.40;;;24.00;99.90;;;;;;5024342;28;20456;-72
2022/05/16 12:03:22;;;;;;;3.00;2.10;;;24.10;99.90;;;;;;5013805;28;20594;-72
2022/05/16 12:06:24;;;;;;;3.97;2.57;;;24.20;99.90;;;;;;5017827;28;20467;-73
2022/05/16 12:09:19;;;;;;;2.73;2.53;;;24.30;99.90;;;;;;5023674;28;20620;-72
2022/05/16 12:12:12;;;;;;;3.47;2.43;;;24.40;99.90;;;;;;5025028;28;20477;-72
2022/05/16 12:15:30;;;;;;;3.40;2.20;;;24.50;99.90;;;;;;5025268;28;20557;-71
2022/05/16 12:18:44;;;;;;;4.23;2.60;;;24.60;99.90;;;;;;5028946;28;20459;-72
2022/05/16 12:21:35;;;;;;;3.40;2.43;;;24.80;99.90;;;;;;5018443;28;20482;-71
2022/05/16 12:24:31;;;;;;;2.87;2.30;;;24.90;99.90;;;;;;5004412;28;20518;-72
2022/05/16 12:27:29;;;;;;;4.60;2.50;;;25.00;99.90;;;;;;5004863;28;20463;-72
2022/05/16 12:30:44;;;;;;;3.87;2.43;;;25.10;99.90;;;;;;5013211;28;20448;-72
2022/05/16 12:33:55;;;;;;;3.77;2.60;;;25.20;99.90;;;;;;4996895;28;20487;-71
2022/05/16 12:36:43;;;;;;;2.83;2.53;;;25.40;99.90;;;;;;5003404;28;20629;-72
2022/05/16 12:39:37;;;;;;;2.93;2.63;;;25.50;99.90;;;;;;5009831;28;20944;-71
2022/05/16 12:43:02;;;;;;;3.03;2.23;;;25.60;99.90;;;;;;5008169;28;20483;-73
2022/05/16 12:46:10;;;;;;;3.90;2.33;;;25.80;99.90;;;;;;5029520;28;20521;-71
2022/05/16 12:49:29;;;;;;;3.00;2.30;;;25.90;99.90;;;;;;5017426;28;20448;-71
2022/05/16 12:52:53;;;;;;;3.67;2.60;;;26.00;99.90;;;;;;5022049;28;20491;-72
2022/05/16 12:55:54;;;;;;;2.93;2.40;;;26.10;99.90;;;;;;5020468;28;20494;-72
2022/05/16 12:58:48;;;;;;;3.70;3.00;;;26.20;99.90;;;;;;5019312;28;20984;-72
2022/05/16 13:01:43;;;;;;;3.10;2.57;;;26.40;99.90;;;;;;5006594;28;20525;-71
2022/05/16 13:04:47;;;;;;;3.90;2.80;;;26.50;99.90;;;;;;5025053;28;20459;-72
2022/05/16 13:07:47;;;;;;;5.40;2.90;;;26.50;99.90;;;;;;5020283;28;20589;-73
2022/05/16 13:10:42;;;;;;;3.37;2.33;;;26.50;99.90;;;;;;5020220;28;20497;-74
2022/05/16 13:13:56;;;;;;;3.87;2.47;;;26.60;99.90;;;;;;5013770;28;20486;-71
2022/05/16 13:16:53;;;;;;;3.30;2.87;;;26.70;99.90;;;;;;5027655;28;20487;-74
2022/05/16 13:19:45;;;;;;;3.47;3.13;;;26.70;99.90;;;;;;5023937;28;20455;-72
2022/05/16 13:22:35;;;;;;;2.30;2.10;;;26.80;99.90;;;;;;5006501;28;20570;-72
2022/05/16 13:25:25;;;;;;;4.27;3.00;;;26.90;99.90;;;;;;5008861;28;20471;-73
2022/05/16 13:31:33;;;;;;;3.60;3.20;;;27.20;99.90;;;;;;5011086;28;20450;-75
2022/05/16 13:34:31;;;;;;;3.60;2.80;;;27.30;99.90;;;;;;5028565;28;22597;-75
2022/05/16 13:37:23;;;;;;;5.17;2.80;;;27.50;99.90;;;;;;5039795;28;20470;-75
2022/05/16 13:40:20;;;;;;;2.87;2.57;;;27.50;99.90;;;;;;5016260;28;21107;-72
2022/05/16 13:43:14;;;;;;;2.47;2.27;;;27.50;99.50;;;;;;5033874;28;20475;-72
2022/05/16 13:46:04;;;;;;;2.77;2.40;;;27.50;99.60;;;;;;5039258;28;20483;-72
2022/05/16 13:48:56;;;;;;;3.37;2.90;;;27.50;99.00;;;;;;5035572;28;20457;-77
2022/05/16 13:51:47;;;;;;;4.33;3.20;;;27.50;99.70;;;;;;5037435;28;20834;-73
2022/05/16 13:54:37;;;;;;;5.50;3.40;;;27.50;97.50;;;;;;5040813;28;20486;-72
2022/05/16 13:57:27;;;;;;;3.93;2.47;;;27.40;96.50;;;;;;5023098;28;20577;-72
2022/05/16 14:00:25;;;;;;;3.20;2.90;;;27.50;97.60;;;;;;5033729;28;20450;-73
2022/05/16 14:03:25;;;;;;;4.70;2.60;;;27.40;96.50;;;;;;5033129;28;21878;-76
2022/05/16 14:06:14;;;;;;;4.80;2.50;;;27.40;97.30;;;;;;5026356;28;20871;-71
2022/05/16 14:09:06;;;;;;;2.73;2.53;;;27.30;96.60;;;;;;5049103;28;20484;-72
2022/05/16 14:11:57;;;;;;;3.90;2.83;;;27.30;97.10;;;;;;5047748;28;20533;-70
2022/05/16 14:14:48;;;;;;;5.03;2.83;;;27.30;98.30;;;;;;5040137;28;20463;-72
2022/05/16 14:17:40;;;;;;;4.53;2.53;;;27.20;97.50;;;;;;5045935;28;20474;-70
2022/05/16 14:20:40;;;;;;;3.10;2.37;;;27.10;97.00;;;;;;5032035;28;20467;-70
2022/05/16 14:23:42;;;;;;;2.43;2.23;;;26.90;97.90;;;;;;5047141;28;20492;-70
2022/05/16 14:26:48;;;;;;;3.13;2.53;;;26.90;97.20;;;;;;5047327;28;20467;-70
2022/05/16 14:29:37;;;;;;;2.87;2.47;;;26.90;98.10;;;;;;5045293;28;20520;-71
2022/05/16 14:32:26;;;;;;;3.67;2.30;;;27.10;97.80;;;;;;5047773;28;20667;-70
2022/05/16 14:35:20;;;;;;;3.97;3.00;;;27.20;98.10;;;;;;5039273;28;20565;-71
2022/05/16 14:38:13;;;;;;;3.33;2.50;;;27.20;97.80;;;;;;5045838;28;20590;-69
2022/05/16 14:41:07;;;;;;;2.30;2.10;;;27.10;97.00;;;;;;5041698;28;20447;-71
2022/05/16 14:44:01;;;;;;;2.47;2.27;;;26.90;96.90;;;;;;5037204;28;20474;-71
2022/05/16 14:47:04;;;;;;;3.90;2.90;;;26.80;97.30;;;;;;5045678;28;20622;-71
2022/05/16 14:49:53;;;;;;;3.00;2.67;;;26.80;97.40;;;;;;5041081;28;21471;-71
2022/05/16 14:52:46;;;;;;;3.87;2.40;;;26.70;97.10;;;;;;5045976;28;20950;-70
2022/05/16 14:55:37;;;;;;;3.97;2.80;;;26.60;97.60;;;;;;5047796;28;20478;-73
2022/05/16 14:58:26;;;;;;;5.70;2.73;;;26.60;98.40;;;;;;5036641;28;20564;-71
2022/05/16 15:04:22;;;;;;;6.10;3.10;;;26.20;99.90;;;;;;5032816;28;20474;-71
2022/05/16 15:07:12;;;;;;;3.97;2.63;;;26.00;99.90;;;;;;5042990;28;20479;-72
2022/05/16 15:10:00;;;;;;;2.87;2.60;;;25.90;99.90;;;;;;5045089;28;20474;-71
2022/05/16 15:12:53;;;;;;;3.40;2.77;;;25.70;99.90;;;;;;5043531;28;20477;-71
2022/05/16 15:15:42;;;;;;;3.60;2.43;;;25.50;99.90;;;;;;5036074;28;20501;-73
2022/05/16 15:18:30;;;;;;;3.70;2.83;;;25.50;99.90;;;;;;5044531;28;21110;-69
2022/05/16 15:21:20;;;;;;;5.27;2.80;;;25.40;99.90;;;;;;5042154;28;20465;-70
2022/05/16 15:24:12;;;;;;;5.20;2.90;;;25.40;99.90;;;;;;5046088;28;20519;-71
2022/05/16 15:27:21;;;;;;;6.03;2.83;;;25.40;99.90;;;;;;5050300;28;20829;-71
2022/05/16 15:30:11;;;;;;;6.20;2.80;;;25.30;99.90;;;;;;5037994;28;20574;-71
2022/05/16 15:32:59;;;;;;;4.73;2.93;;;25.10;99.90;;;;;;5030684;28;20493;-70
2022/05/16 15:35:49;;;;;;;3.43;2.70;;;24.90;99.90;;;;;;5043409;28;20481;-70
2022/05/16 15:38:39;;;;;;;5.20;2.70;;;24.80;99.90;;;;;;5038515;28;20517;-72
2022/05/16 15:41:27;;;;;;;4.80;2.67;;;24.70;99.90;;;;;;5031114;28;20455;-73
2022/05/16 15:44:16;;;;;;;3.40;2.70;;;24.60;99.90;;;;;;5049738;28;20658;-70
2022/05/16 15:47:09;;;;;;;4.93;2.70;;;24.40;99.90;;;;;;5042111;28;20495;-70
2022/05/16 15:50:00;;;;;;;3.37;2.40;;;24.50;99.90;;;;;;5052326;28;20537;-70
2022/05/16 15:52:48;;;;;;;4.47;2.40;;;24.60;99.90;;;;;;5051359;28;20548;-72
2022/05/16 15:55:38;;;;;;;4.73;2.90;;;24.70;99.90;;;;;;5051608;28;20478;-71